Time;durP1;ratioP1;P1;durP2;ratioP2;P2;SDS_P1;SDS_P2;PMS_P1;PMS_P2;Temp;Humidity;BMP_temperature;BMP_pressure;BME280_temperature;BME280_humidity;BME280_pressure;Samples;Min_cycle;Max_cycle;Signal;HPM_P1;HPM_P2
2024/04/05 00:00:17;;;;;;;9.70;9.30;;;12.50;1.00;;;;;;5018701;28;20568;-51
2024/04/05 00:02:45;;;;;;;9.63;9.13;;;12.50;1.00;;;;;;5020484;28;20425;-48
2024/04/05 00:05:12;;;;;;;9.80;9.30;;;12.60;1.00;;;;;;5020658;28;20524;-49
2024/04/05 00:07:38;;;;;;;9.40;9.00;;;12.60;1.00;;;;;;5020343;28;20510;-46
2024/04/05 00:10:08;;;;;;;10.13;9.63;;;12.60;1.00;;;;;;5020255;28;20517;-45
2024/04/05 00:12:34;;;;;;;9.67;9.27;;;12.70;1.00;;;;;;5019613;28;20457;-47
2024/04/05 00:15:00;;;;;;;9.80;9.40;;;12.60;1.00;;;;;;5020216;28;20428;-52
2024/04/05 00:17:26;;;;;;;9.63;9.23;;;12.60;1.00;;;;;;5019537;28;20417;-48
2024/04/05 00:19:54;;;;;;;10.07;9.57;;;12.70;1.00;;;;;;5020407;28;20183;-51
2024/04/05 00:22:22;;;;;;;9.80;9.30;;;12.60;1.00;;;;;;5020111;28;20663;-49
2024/04/05 00:24:48;;;;;;;9.60;9.20;;;12.50;1.00;;;;;;5019766;28;20413;-52
2024/04/05 00:27:14;;;;;;;10.10;9.50;;;12.50;1.00;;;;;;5019794;28;20429;-47
2024/04/05 00:29:39;;;;;;;10.50;9.80;;;12.40;1.00;;;;;;5019312;28;20464;-48
2024/04/05 00:32:05;;;;;;;10.10;9.50;;;12.40;1.00;;;;;;5019908;28;20206;-45
2024/04/05 00:34:31;;;;;;;9.83;9.43;;;12.40;1.00;;;;;;5020113;28;20182;-46
2024/04/05 00:36:57;;;;;;;10.07;9.67;;;12.50;1.00;;;;;;5019899;28;20417;-43
2024/04/05 00:39:22;;;;;;;10.57;9.97;;;12.50;1.00;;;;;;5019793;28;20194;-37
2024/04/05 00:41:48;;;;;;;10.30;9.70;;;12.40;1.00;;;;;;5019916;28;20739;-37
2024/04/05 00:44:14;;;;;;;10.50;9.80;;;12.40;1.00;;;;;;5019648;28;20213;-37
2024/04/05 00:46:40;;;;;;;10.30;9.90;;;12.40;8.90;;;;;;5019980;28;20605;-38
2024/04/05 00:49:06;;;;;;;9.93;9.53;;;12.40;5.50;;;;;;5019809;28;20796;-39
2024/04/05 00:51:33;;;;;;;9.80;9.40;;;12.40;8.60;;;;;;5019666;28;20970;-43
2024/04/05 00:53:59;;;;;;;9.70;9.30;;;12.30;37.80;;;;;;5019499;28;20834;-39
2024/04/05 00:56:25;;;;;;;10.27;9.77;;;12.30;60.90;;;;;;5019505;28;20412;-39
2024/04/05 00:58:50;;;;;;;9.70;9.30;;;12.30;97.70;;;;;;5018488;28;20800;-40
2024/04/05 01:01:16;;;;;;;9.87;9.37;;;12.20;99.90;;;;;;5019931;28;20424;-41
2024/04/05 01:03:42;;;;;;;10.27;9.77;;;12.20;99.90;;;;;;5019228;28;20309;-39
2024/04/05 01:06:08;;;;;;;10.27;9.60;;;12.10;99.90;;;;;;5019540;28;20182;-39
2024/04/05 01:08:34;;;;;;;10.87;10.17;;;12.00;99.90;;;;;;5018977;28;20210;-41
2024/04/05 01:11:00;;;;;;;10.50;10.00;;;11.90;99.90;;;;;;5019533;28;20471;-40
2024/04/05 01:13:26;;;;;;;9.97;9.57;;;11.80;1.00;;;;;;5019738;28;20413;-40
2024/04/05 01:15:52;;;;;;;10.33;9.80;;;11.70;1.00;;;;;;5018949;28;20468;-49
2024/04/05 01:18:17;;;;;;;10.60;10.00;;;11.60;1.00;;;;;;5019474;28;20705;-51
2024/04/05 01:20:45;;;;;;;9.67;9.27;;;11.50;99.90;;;;;;5019376;28;20404;-43
2024/04/05 01:23:16;;;;;;;10.30;9.73;;;11.40;99.90;;;;;;5018918;28;20196;-48
2024/04/05 01:25:42;;;;;;;9.40;9.00;;;11.40;1.00;;;;;;5020852;28;20544;-47
2024/04/05 01:28:13;;;;;;;10.07;9.27;;;11.30;1.00;;;;;;5022407;28;20523;-46
2024/04/05 01:30:38;;;;;;;10.10;9.60;;;11.20;1.00;;;;;;5022566;28;20248;-41
2024/04/05 01:33:05;;;;;;;10.67;10.10;;;11.20;99.90;;;;;;5023247;28;20425;-47
2024/04/05 01:35:30;;;;;;;10.20;9.70;;;11.20;1.00;;;;;;5023310;28;20175;-47
2024/04/05 01:37:57;;;;;;;10.40;9.90;;;11.10;99.90;;;;;;5023189;28;20439;-48
2024/04/05 01:40:23;;;;;;;10.37;9.87;;;11.10;99.90;;;;;;5023675;28;20194;-47
2024/04/05 01:42:49;;;;;;;10.50;10.00;;;11.10;99.90;;;;;;5022457;28;20436;-48
2024/04/05 01:45:15;;;;;;;10.33;9.80;;;11.10;1.00;;;;;;5023048;28;20420;-47
2024/04/05 01:47:42;;;;;;;10.70;10.10;;;11.10;1.00;;;;;;5022716;28;20202;-50
2024/04/05 01:50:08;;;;;;;10.27;9.70;;;11.00;99.90;;;;;;5022718;28;20424;-48
2024/04/05 01:52:33;;;;;;;9.63;9.13;;;11.00;1.00;;;;;;5022986;28;20413;-44
2024/04/05 01:54:59;;;;;;;10.30;9.80;;;11.00;1.00;;;;;;5021981;28;20186;-39
2024/04/05 01:57:25;;;;;;;10.77;9.77;;;11.00;1.00;;;;;;5022579;28;20679;-41
2024/04/05 01:59:55;;;;;;;9.83;9.43;;;10.90;1.00;;;;;;5023069;28;20922;-38
2024/04/05 02:02:22;;;;;;;9.67;9.20;;;10.90;86.40;;;;;;5022006;28;20500;-38
2024/04/05 02:04:51;;;;;;;10.47;9.87;;;11.00;99.90;;;;;;5022418;28;20489;-42
2024/04/05 02:07:19;;;;;;;10.53;9.70;;;11.00;1.00;;;;;;5021057;28;20429;-40
2024/04/05 02:09:51;;;;;;;10.57;10.07;;;11.00;99.90;;;;;;5021830;28;20480;-41
2024/04/05 02:12:17;;;;;;;10.63;9.93;;;11.00;99.90;;;;;;5022530;28;20413;-38
2024/04/05 02:14:43;;;;;;;10.50;9.90;;;11.10;99.90;;;;;;5022545;28;20421;-39
2024/04/05 02:17:10;;;;;;;11.20;10.40;;;11.10;63.70;;;;;;5022996;28;21015;-40
2024/04/05 02:19:35;;;;;;;9.97;9.47;;;11.20;99.90;;;;;;5021366;28;20445;-43
2024/04/05 02:22:01;;;;;;;10.00;9.50;;;11.30;1.00;;;;;;5021144;28;20436;-38
2024/04/05 02:24:27;;;;;;;10.43;9.83;;;11.40;99.90;;;;;;5021249;28;20190;-41
2024/04/05 02:26:52;;;;;;;10.90;9.87;;;11.30;99.90;;;;;;5021570;28;20189;-38
2024/04/05 02:29:18;;;;;;;10.00;9.50;;;11.30;1.00;;;;;;5021193;28;20460;-41
2024/04/05 02:31:44;;;;;;;10.60;10.00;;;11.30;16.60;;;;;;5020814;28;20714;-41
2024/04/05 02:34:10;;;;;;;10.17;9.67;;;11.30;1.00;;;;;;5021196;28;20425;-40
2024/04/05 02:36:36;;;;;;;10.67;10.07;;;11.40;1.00;;;;;;5020388;28;20413;-42
2024/04/05 02:39:05;;;;;;;10.70;10.20;;;11.40;1.00;;;;;;5019952;28;20444;-38
2024/04/05 02:41:31;;;;;;;10.23;9.73;;;11.40;99.90;;;;;;5020771;28;20193;-39
2024/04/05 02:43:57;;;;;;;10.20;9.80;;;11.40;99.90;;;;;;5020312;28;20421;-45
2024/04/05 02:46:22;;;;;;;10.87;10.20;;;11.30;99.90;;;;;;5021045;28;20524;-41
2024/04/05 02:48:48;;;;;;;10.33;9.63;;;11.30;99.90;;;;;;5020606;28;20626;-39
2024/04/05 02:51:14;;;;;;;9.93;9.47;;;11.30;99.90;;;;;;5020064;28;20202;-38
2024/04/05 02:53:39;;;;;;;9.80;9.37;;;11.30;99.90;;;;;;5020784;28;20657;-38
2024/04/05 02:56:05;;;;;;;10.33;9.83;;;11.30;99.90;;;;;;5020383;28;20171;-39
2024/04/05 02:58:31;;;;;;;10.70;10.00;;;11.30;99.90;;;;;;5020550;28;20227;-38
2024/04/05 03:00:56;;;;;;;10.33;9.53;;;11.40;99.90;;;;;;5020926;28;20187;-41
2024/04/05 03:03:23;;;;;;;10.27;9.80;;;11.30;99.90;;;;;;5020287;28;20218;-39
2024/04/05 03:05:49;;;;;;;9.97;9.53;;;11.30;99.90;;;;;;5020192;28;20452;-38
2024/04/05 03:08:15;;;;;;;10.07;9.47;;;11.30;99.90;;;;;;5020101;28;20507;-40
2024/04/05 03:10:41;;;;;;;9.90;9.40;;;11.20;92.20;;;;;;5020064;28;20508;-38
2024/04/05 03:13:07;;;;;;;10.47;9.97;;;11.10;99.60;;;;;;5020624;28;20575;-44
2024/04/05 03:15:34;;;;;;;10.63;9.93;;;11.10;99.90;;;;;;5018111;28;20183;-42
2024/04/05 03:17:59;;;;;;;10.90;9.97;;;11.00;99.90;;;;;;4973589;28;1303272;-39
2024/04/05 03:20:25;;;;;;;9.93;9.43;;;11.00;99.90;;;;;;5020850;28;20229;-45
2024/04/05 03:22:52;;;;;;;9.90;9.20;;;10.90;99.90;;;;;;5020327;28;20198;-45
2024/04/05 03:25:18;;;;;;;10.47;9.90;;;10.90;1.00;;;;;;5020464;28;20190;-45
2024/04/05 03:27:43;;;;;;;10.10;9.70;;;10.80;1.00;;;;;;5021048;28;20499;-44
2024/04/05 03:30:09;;;;;;;10.50;9.80;;;10.70;9.80;;;;;;5020989;28;20187;-49
2024/04/05 03:32:35;;;;;;;10.37;9.87;;;10.60;99.90;;;;;;5021225;28;20182;-49
2024/04/05 03:35:02;;;;;;;10.13;9.50;;;10.50;1.00;;;;;;5021275;28;20190;-48
2024/04/05 03:37:28;;;;;;;10.40;9.63;;;10.50;1.00;;;;;;5020869;28;20277;-46
2024/04/05 03:39:54;;;;;;;9.63;9.23;;;10.40;1.00;;;;;;5021077;28;20896;-47
2024/04/05 03:42:20;;;;;;;10.47;9.70;;;10.30;1.00;;;;;;5020531;28;20222;-46
2024/04/05 03:44:47;;;;;;;10.20;9.43;;;10.20;1.00;;;;;;5019334;28;20453;-44
2024/04/05 03:47:13;;;;;;;9.17;8.77;;;10.20;99.90;;;;;;5019231;28;20907;-49
2024/04/05 03:49:39;;;;;;;9.83;9.33;;;10.10;1.00;;;;;;5019703;28;20626;-40
2024/04/05 03:52:06;;;;;;;9.83;9.13;;;10.10;1.00;;;;;;5020723;28;20437;-47
2024/04/05 03:54:31;;;;;;;9.57;9.07;;;10.00;1.00;;;;;;5020384;28;20436;-39
2024/04/05 03:56:57;;;;;;;9.40;8.90;;;10.00;1.00;;;;;;5020782;28;20443;-40
2024/04/05 03:59:22;;;;;;;8.70;8.10;;;9.90;8.50;;;;;;5021152;28;20651;-40
2024/04/05 04:01:51;;;;;;;8.93;8.37;;;9.90;99.90;;;;;;5020442;28;20190;-38
2024/04/05 04:04:17;;;;;;;9.43;8.93;;;9.90;99.90;;;;;;5020224;28;20607;-39
2024/04/05 04:06:43;;;;;;;9.40;8.90;;;9.80;99.90;;;;;;5021122;28;20437;-40
2024/04/05 04:09:11;;;;;;;10.20;9.60;;;9.70;99.90;;;;;;5019865;28;20464;-38
2024/04/05 04:11:37;;;;;;;9.87;9.07;;;9.60;99.90;;;;;;5020487;28;20432;-41
2024/04/05 04:14:02;;;;;;;9.53;9.03;;;9.60;1.00;;;;;;5020313;28;21026;-39
2024/04/05 04:16:28;;;;;;;10.00;9.23;;;9.50;1.00;;;;;;5016405;28;20437;-38
2024/04/05 04:18:53;;;;;;;10.37;9.77;;;9.50;1.00;;;;;;5015844;28;20241;-39
2024/04/05 04:21:22;;;;;;;10.60;10.00;;;9.40;1.00;;;;;;5031606;28;20194;-39
2024/04/05 04:23:47;;;;;;;9.93;9.43;;;9.40;1.00;;;;;;5018213;28;20942;-40
2024/04/05 04:26:13;;;;;;;10.40;9.80;;;9.40;1.00;;;;;;5018670;28;20436;-39
2024/04/05 04:28:39;;;;;;;10.47;9.70;;;9.30;1.00;;;;;;5020122;28;20464;-39
2024/04/05 04:31:23;;;;;;;10.23;9.67;;;9.30;1.00;;;;;;5020058;28;20186;-38
2024/04/05 04:33:49;;;;;;;10.10;9.60;;;9.30;1.00;;;;;;5020937;28;20181;-38
2024/04/05 04:36:15;;;;;;;9.87;9.37;;;9.30;1.00;;;;;;5020205;28;20463;-38
2024/04/05 04:38:41;;;;;;;10.27;9.53;;;9.30;1.00;;;;;;5019932;28;20440;-40
2024/04/05 04:41:06;;;;;;;10.23;9.53;;;9.30;1.00;;;;;;5020447;28;20183;-41
2024/04/05 04:43:32;;;;;;;9.40;8.90;;;9.30;1.00;;;;;;5020755;28;20182;-39
2024/04/05 04:45:58;;;;;;;9.67;8.93;;;9.30;1.00;;;;;;5019214;28;20563;-41
2024/04/05 04:48:25;;;;;;;9.97;9.07;;;9.30;1.00;;;;;;5020651;28;20245;-38
2024/04/05 04:50:53;;;;;;;8.97;8.40;;;9.30;1.00;;;;;;5017714;28;20436;-39
2024/04/05 04:53:19;;;;;;;9.50;9.00;;;9.20;1.00;;;;;;5019001;28;20431;-38
2024/04/05 04:55:45;;;;;;;10.13;9.33;;;9.30;1.00;;;;;;5019493;28;20425;-41
2024/04/05 04:58:11;;;;;;;10.03;9.23;;;9.30;1.00;;;;;;5019925;28;20190;-38
2024/04/05 05:00:37;;;;;;;10.03;9.43;;;9.40;1.00;;;;;;5018299;28;20483;-38
2024/04/05 05:03:03;;;;;;;10.10;9.50;;;9.50;1.00;;;;;;5019560;28;20669;-38
2024/04/05 05:05:28;;;;;;;9.80;9.30;;;9.50;1.00;;;;;;5017988;28;20640;-40
2024/04/05 05:07:54;;;;;;;9.93;9.33;;;9.60;1.00;;;;;;5019307;28;20522;-41
2024/04/05 05:10:19;;;;;;;10.30;9.60;;;9.60;1.00;;;;;;5017811;28;20193;-39
2024/04/05 05:12:45;;;;;;;9.40;8.90;;;9.70;1.00;;;;;;5018113;28;20182;-40
2024/04/05 05:15:11;;;;;;;10.43;9.73;;;9.80;1.00;;;;;;5019217;28;20201;-38
2024/04/05 05:17:37;;;;;;;10.23;9.50;;;9.80;1.00;;;;;;5019389;28;20281;-39
2024/04/05 05:20:07;;;;;;;10.37;9.87;;;9.90;1.00;;;;;;5018661;28;20433;-41
2024/04/05 05:22:32;;;;;;;10.13;9.30;;;9.90;1.00;;;;;;5018300;28;20432;-40
2024/04/05 05:24:58;;;;;;;11.93;10.93;;;10.00;1.00;;;;;;5018423;28;20437;-38
2024/04/05 05:27:24;;;;;;;9.47;8.93;;;10.10;99.90;;;;;;5018463;28;20190;-41
2024/04/05 05:29:49;;;;;;;10.00;9.40;;;10.20;99.90;;;;;;5019238;28;20539;-42
2024/04/05 05:32:15;;;;;;;10.30;9.70;;;10.30;99.90;;;;;;5019119;28;20186;-39
2024/04/05 05:34:41;;;;;;;10.37;9.77;;;10.40;99.90;;;;;;5019294;28;20193;-38
2024/04/05 05:37:07;;;;;;;10.83;9.93;;;10.50;1.00;;;;;;5019409;28;20421;-38
2024/04/05 05:39:32;;;;;;;10.57;9.53;;;10.60;1.00;;;;;;5019523;28;20290;-40
2024/04/05 05:41:59;;;;;;;10.53;9.80;;;10.80;99.90;;;;;;5019354;28;20178;-40
2024/04/05 05:44:25;;;;;;;10.60;9.63;;;10.90;99.90;;;;;;5019342;28;20186;-42
2024/04/05 05:46:51;;;;;;;11.57;10.17;;;11.00;99.90;;;;;;5018813;28;20441;-39
2024/04/05 05:49:17;;;;;;;10.20;9.70;;;11.20;1.00;;;;;;5016316;28;20585;-41
2024/04/05 05:51:42;;;;;;;10.20;9.63;;;11.30;99.90;;;;;;5017290;28;20476;-47
2024/04/05 05:54:08;;;;;;;11.13;10.27;;;11.40;1.00;;;;;;5018629;28;20657;-48
2024/04/05 05:56:33;;;;;;;11.00;10.20;;;11.60;99.90;;;;;;5018450;28;20558;-49
2024/04/05 05:58:59;;;;;;;10.00;9.30;;;11.70;1.00;;;;;;5018081;28;20560;-41
2024/04/05 06:01:25;;;;;;;10.50;9.50;;;11.80;1.00;;;;;;5017107;28;20186;-42
2024/04/05 06:03:50;;;;;;;9.67;8.83;;;12.00;1.00;;;;;;5018260;28;20186;-44
2024/04/05 06:06:16;;;;;;;10.50;9.67;;;12.10;99.90;;;;;;5019147;28;20194;-41
2024/04/05 06:08:42;;;;;;;10.50;9.70;;;12.20;99.90;;;;;;5017020;28;20202;-43
2024/04/05 06:11:08;;;;;;;10.80;9.80;;;12.40;1.00;;;;;;5020311;28;20182;-46
2024/04/05 06:13:33;;;;;;;9.60;9.10;;;12.50;1.00;;;;;;5021348;28;20751;-47
2024/04/05 06:15:59;;;;;;;9.90;9.10;;;12.60;1.00;;;;;;5022001;28;20463;-46
2024/04/05 06:18:27;;;;;;;10.33;9.40;;;12.70;1.00;;;;;;5021176;28;20230;-47
2024/04/05 06:20:57;;;;;;;12.47;9.10;;;12.70;99.90;;;;;;5021718;28;20196;-52
2024/04/05 06:23:24;;;;;;;9.83;9.17;;;12.80;99.90;;;;;;5021153;28;20452;-52
2024/04/05 06:25:59;;;;;;;10.53;9.77;;;13.00;99.90;;;;;;5021465;28;20441;-44
2024/04/05 06:28:26;;;;;;;10.87;9.87;;;13.00;99.90;;;;;;5018518;28;20483;-48
2024/04/05 06:30:52;;;;;;;11.83;11.03;;;13.10;99.90;;;;;;5021451;28;20912;-45
2024/04/05 06:33:19;;;;;;;10.27;9.47;;;13.20;99.90;;;;;;5021278;28;20451;-45
2024/04/05 06:35:44;;;;;;;9.47;8.87;;;13.30;99.90;;;;;;5021962;28;20452;-42
2024/04/05 06:38:10;;;;;;;10.63;9.93;;;13.50;99.90;;;;;;5023456;28;20421;-39
2024/04/05 06:40:36;;;;;;;10.10;9.50;;;13.50;99.90;;;;;;5023123;28;20201;-40
2024/04/05 06:43:03;;;;;;;10.43;9.67;;;13.60;99.90;;;;;;5022031;28;20194;-39
2024/04/05 06:45:29;;;;;;;10.40;9.60;;;13.80;99.90;;;;;;5022615;28;20806;-40
2024/04/05 06:47:58;;;;;;;10.83;10.07;;;14.00;78.80;;;;;;5022915;28;21028;-41
2024/04/05 06:50:25;;;;;;;10.90;10.30;;;14.10;1.00;;;;;;5021853;28;20429;-39
2024/04/05 06:52:56;;;;;;;10.80;10.00;;;14.30;1.00;;;;;;5021824;28;20444;-42
2024/04/05 06:55:22;;;;;;;11.27;10.37;;;14.30;1.00;;;;;;5023074;28;20459;-40
2024/04/05 06:57:47;;;;;;;11.20;10.20;;;14.50;1.00;;;;;;5022511;28;20425;-48
2024/04/05 07:00:15;;;;;;;10.73;10.13;;;14.60;1.00;;;;;;5023444;28;20899;-51
2024/04/05 07:02:41;;;;;;;10.90;9.93;;;14.80;1.00;;;;;;5022779;28;20630;-49
2024/04/05 07:05:07;;;;;;;9.80;9.30;;;15.00;1.00;;;;;;5022738;28;20810;-50
2024/04/05 07:07:32;;;;;;;10.27;9.50;;;15.20;1.00;;;;;;5023209;28;20473;-48
2024/04/05 07:09:58;;;;;;;10.20;9.40;;;15.40;1.00;;;;;;5021146;28;20218;-47
2024/04/05 07:12:24;;;;;;;9.97;9.30;;;15.50;1.00;;;;;;5022774;28;20241;-47
2024/04/05 07:14:49;;;;;;;10.10;9.20;;;15.60;1.00;;;;;;5022502;28;20437;-46
2024/04/05 07:17:15;;;;;;;9.90;9.30;;;15.70;1.00;;;;;;5021814;28;20646;-48
2024/04/05 07:19:40;;;;;;;10.23;9.43;;;15.70;1.00;;;;;;5022113;28;20217;-46
2024/04/05 07:22:09;;;;;;;9.93;9.43;;;15.90;1.00;;;;;;5020801;28;20620;-50
2024/04/05 07:24:35;;;;;;;10.50;9.90;;;16.10;1.00;;;;;;5021387;28;20671;-51
2024/04/05 07:27:01;;;;;;;11.00;10.30;;;16.20;1.00;;;;;;5021757;28;20444;-44
2024/04/05 07:29:26;;;;;;;9.90;9.30;;;16.30;1.00;;;;;;5022123;28;20491;-50
2024/04/05 07:31:53;;;;;;;10.80;10.10;;;16.40;99.90;;;;;;5022989;28;20186;-50
2024/04/05 07:34:19;;;;;;;10.20;9.60;;;16.60;99.90;;;;;;5022353;28;20182;-51
2024/04/05 07:36:45;;;;;;;10.30;9.70;;;16.70;99.90;;;;;;5021241;28;20432;-48
2024/04/05 07:39:12;;;;;;;9.93;9.33;;;16.90;99.90;;;;;;5020858;28;20213;-49
2024/04/05 07:41:37;;;;;;;9.70;9.20;;;17.20;99.90;;;;;;5020988;28;20500;-39
2024/04/05 07:44:03;;;;;;;9.30;8.57;;;17.20;99.90;;;;;;5019579;28;20432;-43
2024/04/05 07:46:29;;;;;;;10.83;9.83;;;17.30;99.90;;;;;;5020838;28;20225;-43
2024/04/05 07:48:54;;;;;;;10.20;9.70;;;17.30;99.90;;;;;;5020811;28;20307;-40
2024/04/05 07:51:20;;;;;;;9.77;9.27;;;17.20;99.90;;;;;;5021029;28;20186;-44
2024/04/05 07:53:47;;;;;;;10.60;9.90;;;17.00;99.90;;;;;;5020284;28;20182;-39
2024/04/05 07:56:12;;;;;;;9.97;9.37;;;17.00;99.90;;;;;;5020474;28;20232;-38
2024/04/05 07:58:39;;;;;;;9.70;9.10;;;16.90;99.90;;;;;;5020728;28;20429;-43
2024/04/05 08:01:07;;;;;;;10.57;9.83;;;16.80;99.90;;;;;;5020758;28;20190;-51
2024/04/05 08:03:33;;;;;;;9.70;9.20;;;16.80;99.90;;;;;;5019206;28;20491;-50
2024/04/05 08:05:59;;;;;;;10.90;10.20;;;16.70;99.90;;;;;;5019176;28;20445;-50
2024/04/05 08:08:25;;;;;;;11.10;10.20;;;16.70;99.90;;;;;;5019886;28;20763;-47
2024/04/05 08:10:59;;;;;;;10.03;9.53;;;16.70;99.90;;;;;;5020351;28;20425;-47
2024/04/05 08:13:25;;;;;;;10.30;9.70;;;16.60;99.90;;;;;;5020455;28;20660;-43
2024/04/05 08:15:50;;;;;;;10.13;9.53;;;16.50;99.90;;;;;;5018275;28;20658;-50
2024/04/05 08:18:16;;;;;;;10.60;10.10;;;16.50;99.90;;;;;;5018521;28;20241;-52
2024/04/05 08:20:42;;;;;;;9.73;8.93;;;16.40;99.90;;;;;;5019396;28;20297;-46
2024/04/05 08:23:07;;;;;;;10.70;10.00;;;16.40;99.90;;;;;;5019605;28;20301;-39
2024/04/05 08:25:33;;;;;;;10.83;10.23;;;16.30;99.90;;;;;;5018591;28;20626;-48
2024/04/05 08:27:58;;;;;;;9.80;9.10;;;16.40;99.90;;;;;;5019362;28;20190;-42
2024/04/05 08:30:24;;;;;;;10.40;9.90;;;16.40;99.90;;;;;;5018105;28;20222;-45
2024/04/05 08:32:50;;;;;;;9.90;9.40;;;16.50;99.90;;;;;;5019543;28;20442;-39
2024/04/05 08:35:16;;;;;;;10.03;9.53;;;16.50;99.90;;;;;;5018937;28;20175;-49
2024/04/05 08:37:43;;;;;;;10.97;10.27;;;16.40;99.90;;;;;;5018678;28;20475;-46
2024/04/05 08:40:09;;;;;;;10.20;9.57;;;16.50;99.90;;;;;;5019970;28;20428;-48
2024/04/05 08:42:37;;;;;;;10.43;9.77;;;16.60;99.90;;;;;;5019251;28;20814;-48
2024/04/05 08:45:04;;;;;;;11.37;10.27;;;16.70;99.90;;;;;;5020069;28;20417;-41
2024/04/05 08:47:33;;;;;;;10.80;10.10;;;16.80;99.90;;;;;;5018062;28;20502;-44
2024/04/05 08:50:02;;;;;;;10.97;10.27;;;16.80;99.90;;;;;;5019306;28;20453;-44
2024/04/05 08:52:28;;;;;;;11.33;10.63;;;16.80;99.90;;;;;;5017412;28;20432;-41
2024/04/05 08:54:58;;;;;;;11.20;10.50;;;17.00;99.90;;;;;;5019751;28;20575;-39
2024/04/05 08:57:29;;;;;;;11.10;10.40;;;17.10;99.90;;;;;;5018343;28;20511;-44
2024/04/05 08:59:55;;;;;;;9.90;9.20;;;17.40;99.90;;;;;;5018786;28;20979;-43
2024/04/05 09:02:23;;;;;;;11.87;11.03;;;17.60;99.90;;;;;;5018551;28;20979;-52
2024/04/05 09:04:50;;;;;;;10.93;10.17;;;17.90;99.90;;;;;;5019075;28;20521;-50
2024/04/05 09:07:16;;;;;;;10.83;10.30;;;18.10;99.90;;;;;;5018645;28;20445;-47
2024/04/05 09:09:46;;;;;;;10.67;10.07;;;18.40;99.90;;;;;;5020233;28;20510;-46
2024/04/05 09:12:14;;;;;;;11.13;10.43;;;18.70;99.90;;;;;;5018328;28;20182;-50
2024/04/05 09:14:40;;;;;;;11.50;10.90;;;19.20;99.90;;;;;;5018744;28;20433;-48
2024/04/05 09:17:16;;;;;;;10.83;10.03;;;19.70;99.90;;;;;;5017838;28;20440;-50
2024/04/05 09:19:42;;;;;;;11.30;10.60;;;20.20;99.90;;;;;;5018413;28;20451;-47
2024/04/05 09:22:17;;;;;;;11.60;10.67;;;20.80;99.90;;;;;;5018828;28;20441;-46
2024/04/05 09:24:44;;;;;;;11.10;10.33;;;21.20;99.90;;;;;;5019456;28;20197;-47
2024/04/05 09:27:10;;;;;;;10.60;10.10;;;21.20;99.90;;;;;;5018265;28;20483;-49
2024/04/05 09:29:36;;;;;;;10.53;9.93;;;21.20;99.90;;;;;;5018618;28;20971;-46
2024/04/05 09:32:01;;;;;;;11.27;10.50;;;21.30;99.90;;;;;;5019522;28;20555;-50
2024/04/05 09:34:29;;;;;;;10.13;9.63;;;20.70;99.90;;;;;;5019043;28;20613;-46
2024/04/05 09:36:58;;;;;;;11.10;10.50;;;20.70;99.90;;;;;;5019169;28;20239;-50
2024/04/05 09:39:25;;;;;;;11.00;10.40;;;20.50;99.90;;;;;;5018970;28;20475;-48
2024/04/05 09:41:56;;;;;;;10.20;9.60;;;20.30;99.90;;;;;;5018839;28;20665;-44
2024/04/05 09:44:23;;;;;;;11.43;10.73;;;20.60;99.90;;;;;;5019105;28;20654;-45
2024/04/05 09:46:49;;;;;;;10.97;10.17;;;20.90;99.90;;;;;;5021487;28;20429;-40
2024/04/05 09:49:14;;;;;;;10.00;9.27;;;21.20;99.90;;;;;;5022802;28;20463;-44
2024/04/05 09:51:44;;;;;;;10.70;10.00;;;21.30;99.90;;;;;;5023353;28;20452;-40
2024/04/05 09:54:18;;;;;;;11.07;10.47;;;21.60;99.90;;;;;;5022785;28;20591;-41
2024/04/05 09:56:45;;;;;;;10.67;10.07;;;21.60;99.90;;;;;;5022787;28;20410;-44
2024/04/05 09:59:13;;;;;;;11.40;10.60;;;21.60;99.90;;;;;;5021745;28;20456;-43
2024/04/05 10:01:40;;;;;;;10.50;9.90;;;21.70;99.90;;;;;;5022149;28;20811;-39
2024/04/05 10:04:07;;;;;;;10.57;9.83;;;21.80;99.90;;;;;;5021544;28;20470;-41
2024/04/05 10:06:38;;;;;;;10.53;9.93;;;21.90;99.90;;;;;;5021494;28;20922;-50
2024/04/05 10:09:21;;;;;;;10.00;9.40;;;22.50;99.90;;;;;;5021469;28;20504;-52
2024/04/05 10:11:49;;;;;;;9.50;9.00;;;23.50;99.90;;;;;;5021211;28;20475;-46
2024/04/05 10:14:23;;;;;;;8.83;8.40;;;24.30;99.90;;;;;;5022626;28;20416;-49
2024/04/05 10:16:50;;;;;;;10.53;10.03;;;25.20;99.90;;;;;;5020673;28;20913;-49
2024/04/05 10:19:16;;;;;;;9.60;9.20;;;25.70;99.90;;;;;;5021009;28;21041;-49
2024/04/05 10:21:48;;;;;;;9.90;9.30;;;26.20;99.90;;;;;;5021996;28;20436;-44
2024/04/05 10:24:17;;;;;;;8.87;8.47;;;25.70;99.90;;;;;;5021206;28;20794;-44
2024/04/05 10:26:52;;;;;;;10.30;9.80;;;24.90;99.90;;;;;;5019611;28;20896;-44
2024/04/05 10:29:17;;;;;;;10.53;9.80;;;25.10;99.90;;;;;;5020005;28;20473;-41
2024/04/05 10:31:43;;;;;;;9.50;9.10;;;25.90;99.90;;;;;;5021832;28;20474;-45
2024/04/05 10:34:09;;;;;;;10.23;9.73;;;26.70;99.90;;;;;;5021500;28;20187;-49
2024/04/05 10:36:38;;;;;;;10.60;10.10;;;26.30;99.90;;;;;;5021482;28;20190;-48
2024/04/05 10:39:17;;;;;;;9.73;9.20;;;26.70;99.90;;;;;;5021767;28;20511;-45
2024/04/05 10:41:43;;;;;;;9.63;9.23;;;26.40;99.90;;;;;;5021786;28;21204;-46
2024/04/05 10:44:09;;;;;;;8.57;8.20;;;26.20;99.90;;;;;;5019970;28;20444;-49
2024/04/05 10:46:37;;;;;;;9.83;9.33;;;25.90;99.90;;;;;;5020514;28;20430;-46
2024/04/05 10:49:04;;;;;;;10.20;9.60;;;25.60;99.90;;;;;;5020765;28;20464;-44
2024/04/05 10:51:29;;;;;;;9.40;8.90;;;25.40;99.90;;;;;;5021221;28;20833;-49
2024/04/05 10:53:55;;;;;;;10.60;10.10;;;25.20;99.90;;;;;;5021065;28;20527;-44
2024/04/05 10:56:21;;;;;;;10.40;9.80;;;25.60;99.90;;;;;;5021350;28;20254;-48
2024/04/05 10:58:47;;;;;;;9.60;9.10;;;26.10;99.90;;;;;;5020101;28;20194;-45
2024/04/05 11:01:14;;;;;;;8.57;8.07;;;25.70;99.90;;;;;;5020070;28;20956;-52
2024/04/05 11:03:39;;;;;;;9.00;8.60;;;25.60;99.90;;;;;;5020830;28;20433;-46
2024/04/05 11:06:05;;;;;;;9.97;9.50;;;25.70;99.90;;;;;;5021262;28;20936;-45
2024/04/05 11:08:32;;;;;;;9.00;8.60;;;25.90;99.90;;;;;;5020437;28;20468;-50
2024/04/05 11:10:58;;;;;;;8.10;7.80;;;26.40;99.90;;;;;;5020951;28;20866;-51
2024/04/05 11:13:26;;;;;;;8.37;7.97;;;25.50;99.90;;;;;;5020532;28;20425;-45
2024/04/05 11:16:02;;;;;;;9.43;9.03;;;24.90;99.90;;;;;;5021463;28;20244;-49
2024/04/05 11:18:34;;;;;;;9.23;8.67;;;24.90;99.90;;;;;;5020226;28;20506;-45
2024/04/05 11:21:01;;;;;;;9.83;9.23;;;25.40;99.90;;;;;;5020244;28;20585;-44
2024/04/05 11:23:27;;;;;;;7.77;7.37;;;25.80;99.90;;;;;;5020871;28;20537;-49
2024/04/05 11:25:54;;;;;;;9.43;9.03;;;25.70;99.90;;;;;;5019931;28;20475;-44
2024/04/05 11:28:22;;;;;;;9.90;9.30;;;25.70;99.90;;;;;;5020765;28;21334;-44
2024/04/05 11:30:52;;;;;;;9.67;9.20;;;24.80;99.90;;;;;;5020863;28;20421;-45
2024/04/05 11:33:18;;;;;;;9.97;9.47;;;24.60;99.90;;;;;;5020761;28;20412;-47
2024/04/05 11:35:44;;;;;;;10.23;9.63;;;24.30;99.90;;;;;;5021283;28;20417;-48
2024/04/05 11:38:10;;;;;;;9.50;9.00;;;24.10;99.90;;;;;;5020895;28;20183;-49
2024/04/05 11:40:36;;;;;;;9.47;8.97;;;24.70;99.90;;;;;;5020873;28;20449;-49
2024/04/05 11:43:02;;;;;;;9.33;8.73;;;24.80;99.90;;;;;;5020919;28;20789;-50
2024/04/05 11:45:28;;;;;;;9.20;8.80;;;24.00;99.90;;;;;;5020339;28;20423;-49
2024/04/05 11:47:54;;;;;;;9.30;8.77;;;24.40;99.90;;;;;;5020992;28;20417;-48
2024/04/05 11:50:20;;;;;;;9.33;8.93;;;25.10;99.90;;;;;;5021249;28;20633;-49
2024/04/05 11:52:45;;;;;;;9.00;8.60;;;25.20;99.90;;;;;;5020966;28;20429;-47
2024/04/05 11:55:11;;;;;;;9.57;9.17;;;24.60;99.90;;;;;;5020577;28;20218;-46
2024/04/05 11:57:37;;;;;;;9.20;8.80;;;23.90;99.90;;;;;;5020454;28;20628;-50
2024/04/05 12:00:10;;;;;;;8.90;8.50;;;24.20;99.90;;;;;;5019134;28;20575;-48
2024/04/05 12:02:37;;;;;;;9.30;8.80;;;24.30;99.90;;;;;;5019223;28;20555;-48
2024/04/05 12:05:02;;;;;;;9.60;9.10;;;23.30;99.90;;;;;;5019993;28;20492;-49
2024/04/05 12:07:28;;;;;;;9.10;8.60;;;23.80;99.90;;;;;;5019543;28;20780;-50
2024/04/05 12:09:54;;;;;;;9.23;8.83;;;24.70;99.90;;;;;;5018971;28;20250;-46
2024/04/05 12:12:19;;;;;;;9.43;9.03;;;24.50;99.90;;;;;;5019852;28;20197;-49
2024/04/05 12:14:45;;;;;;;9.67;9.27;;;23.80;99.90;;;;;;5018921;28;20191;-44
2024/04/05 12:17:11;;;;;;;8.93;8.63;;;23.40;99.90;;;;;;5019433;28;20186;-50
2024/04/05 12:19:39;;;;;;;8.93;8.60;;;23.60;99.90;;;;;;5019537;28;20456;-47
2024/04/05 12:22:05;;;;;;;8.30;7.77;;;23.80;99.90;;;;;;5019478;28;20645;-46
2024/04/05 12:24:31;;;;;;;7.90;7.60;;;24.50;99.90;;;;;;5018813;28;20456;-47
2024/04/05 12:26:57;;;;;;;9.00;8.60;;;25.00;99.90;;;;;;5019295;28;20420;-45
2024/04/05 12:29:22;;;;;;;9.13;8.83;;;26.00;99.90;;;;;;5020213;28;20464;-51
2024/04/05 12:31:50;;;;;;;9.37;8.97;;;26.80;99.90;;;;;;5017026;28;20186;-49
2024/04/05 12:34:16;;;;;;;9.27;8.87;;;27.10;99.90;;;;;;5018667;28;20364;-47
2024/04/05 12:36:42;;;;;;;9.37;8.97;;;27.80;99.90;;;;;;5020363;28;20531;-47
2024/04/05 12:39:14;;;;;;;8.50;8.10;;;29.10;99.90;;;;;;5019955;28;20202;-42